sensor_id;sensor_type;location;lat;lon;timestamp;P1;durP1;ratioP1;P2;durP2;ratioP2
70675;SDS011;59069;52.242;20.900;2023-01-28T00:00:45;34.13;;;11.83;;
70675;SDS011;59069;52.242;20.900;2023-01-28T00:03:11;33.08;;;11.85;;
70675;SDS011;59069;52.242;20.900;2023-01-28T00:05:36;29.20;;;10.80;;
70675;SDS011;59069;52.242;20.900;2023-01-28T00:08:02;30.52;;;12.07;;
70675;SDS011;59069;52.242;20.900;2023-01-28T00:10:28;30.27;;;11.97;;
70675;SDS011;59069;52.242;20.900;2023-01-28T00:12:53;31.63;;;12.00;;
70675;SDS011;59069;52.242;20.900;2023-01-28T00:15:19;32.92;;;12.68;;
70675;SDS011;59069;52.242;20.900;2023-01-28T00:17:44;29.97;;;11.13;;
70675;SDS011;59069;52.242;20.900;2023-01-28T00:20:10;31.03;;;11.10;;
70675;SDS011;59069;52.242;20.900;2023-01-28T00:22:36;31.53;;;12.07;;
70675;SDS011;59069;52.242;20.900;2023-01-28T00:25:02;34.00;;;11.73;;
70675;SDS011;59069;52.242;20.900;2023-01-28T00:27:27;29.27;;;11.43;;
70675;SDS011;59069;52.242;20.900;2023-01-28T00:29:53;34.63;;;12.68;;
70675;SDS011;59069;52.242;20.900;2023-01-28T00:32:19;32.80;;;11.37;;
70675;SDS011;59069;52.242;20.900;2023-01-28T05:42:03;17.73;;;6.80;;
70675;SDS011;59069;52.242;20.900;2023-01-28T05:44:29;22.93;;;7.33;;
70675;SDS011;59069;52.242;20.900;2023-01-28T05:46:54;21.58;;;7.63;;
70675;SDS011;59069;52.242;20.900;2023-01-28T05:49:20;20.13;;;7.03;;
70675;SDS011;59069;52.242;20.900;2023-01-28T05:51:46;20.45;;;8.40;;
70675;SDS011;59069;52.242;20.900;2023-01-28T05:54:12;22.33;;;8.48;;
70675;SDS011;59069;52.242;20.900;2023-01-28T05:56:38;20.27;;;6.93;;
70675;SDS011;59069;52.242;20.900;2023-01-28T05:59:05;21.40;;;7.78;;
70675;SDS011;59069;52.242;20.900;2023-01-28T06:01:31;23.15;;;8.57;;
70675;SDS011;59069;52.242;20.900;2023-01-28T06:03:57;23.00;;;7.50;;
70675;SDS011;59069;52.242;20.900;2023-01-28T06:06:23;22.13;;;8.05;;
70675;SDS011;59069;52.242;20.900;2023-01-28T06:08:48;23.63;;;8.40;;
70675;SDS011;59069;52.242;20.900;2023-01-28T06:11:14;21.80;;;7.63;;
70675;SDS011;59069;52.242;20.900;2023-01-28T06:13:40;25.20;;;7.85;;
70675;SDS011;59069;52.242;20.900;2023-01-28T06:16:06;23.43;;;7.33;;
70675;SDS011;59069;52.242;20.900;2023-01-28T06:18:32;26.13;;;8.60;;
70675;SDS011;59069;52.242;20.900;2023-01-28T06:20:59;21.25;;;8.05;;
70675;SDS011;59069;52.242;20.900;2023-01-28T06:23:24;24.58;;;8.20;;
70675;SDS011;59069;52.242;20.900;2023-01-28T06:25:56;24.33;;;8.47;;
70675;SDS011;59069;52.242;20.900;2023-01-28T06:28:22;26.95;;;8.27;;
70675;SDS011;59069;52.242;20.900;2023-01-28T06:30:48;21.40;;;7.53;;
70675;SDS011;59069;52.242;20.900;2023-01-28T06:33:15;27.23;;;8.20;;
70675;SDS011;59069;52.242;20.900;2023-01-28T06:35:42;27.53;;;8.43;;
70675;SDS011;59069;52.242;20.900;2023-01-28T06:38:09;25.92;;;8.00;;
70675;SDS011;59069;52.242;20.900;2023-01-28T06:40:35;30.52;;;9.27;;
70675;SDS011;59069;52.242;20.900;2023-01-28T06:43:00;27.63;;;8.57;;
70675;SDS011;59069;52.242;20.900;2023-01-28T06:45:26;21.23;;;7.73;;
70675;SDS011;59069;52.242;20.900;2023-01-28T06:47:52;22.40;;;7.53;;
70675;SDS011;59069;52.242;20.900;2023-01-28T06:50:18;23.70;;;6.97;;
70675;SDS011;59069;52.242;20.900;2023-01-28T06:52:43;22.52;;;7.25;;
70675;SDS011;59069;52.242;20.900;2023-01-28T06:55:09;21.90;;;7.00;;
70675;SDS011;59069;52.242;20.900;2023-01-28T06:57:38;20.40;;;6.78;;
70675;SDS011;59069;52.242;20.900;2023-01-28T07:00:05;20.02;;;7.20;;
70675;SDS011;59069;52.242;20.900;2023-01-28T07:02:32;22.13;;;7.33;;
70675;SDS011;59069;52.242;20.900;2023-01-28T07:04:58;22.45;;;7.35;;
70675;SDS011;59069;52.242;20.900;2023-01-28T07:07:23;22.50;;;7.93;;
70675;SDS011;59069;52.242;20.900;2023-01-28T07:09:49;22.33;;;7.00;;
70675;SDS011;59069;52.242;20.900;2023-01-28T07:12:15;18.93;;;6.70;;
70675;SDS011;59069;52.242;20.900;2023-01-28T07:14:41;19.42;;;7.03;;
70675;SDS011;59069;52.242;20.900;2023-01-28T07:17:06;18.40;;;6.53;;
70675;SDS011;59069;52.242;20.900;2023-01-28T07:19:32;18.17;;;6.33;;
70675;SDS011;59069;52.242;20.900;2023-01-28T07:21:57;19.43;;;6.30;;
70675;SDS011;59069;52.242;20.900;2023-01-28T07:24:25;21.33;;;6.85;;
70675;SDS011;59069;52.242;20.900;2023-01-28T07:26:50;19.63;;;7.07;;
70675;SDS011;59069;52.242;20.900;2023-01-28T07:29:16;20.03;;;6.40;;
70675;SDS011;59069;52.242;20.900;2023-01-28T07:31:42;19.75;;;6.32;;
70675;SDS011;59069;52.242;20.900;2023-01-28T07:34:08;23.23;;;6.63;;
70675;SDS011;59069;52.242;20.900;2023-01-28T07:36:33;30.00;;;8.98;;
70675;SDS011;59069;52.242;20.900;2023-01-28T07:38:59;26.83;;;7.57;;
70675;SDS011;59069;52.242;20.900;2023-01-28T07:41:25;20.58;;;6.68;;
70675;SDS011;59069;52.242;20.900;2023-01-28T07:43:52;19.15;;;7.65;;
70675;SDS011;59069;52.242;20.900;2023-01-28T07:46:17;19.20;;;6.93;;
70675;SDS011;59069;52.242;20.900;2023-01-28T07:48:43;18.60;;;7.03;;
70675;SDS011;59069;52.242;20.900;2023-01-28T07:51:09;19.23;;;7.22;;
70675;SDS011;59069;52.242;20.900;2023-01-28T07:53:34;21.03;;;6.77;;
70675;SDS011;59069;52.242;20.900;2023-01-28T07:56:01;18.88;;;6.43;;
70675;SDS011;59069;52.242;20.900;2023-01-28T07:58:27;17.23;;;6.80;;
70675;SDS011;59069;52.242;20.900;2023-01-28T08:00:55;17.80;;;7.00;;
70675;SDS011;59069;52.242;20.900;2023-01-28T08:03:22;19.27;;;7.67;;
70675;SDS011;59069;52.242;20.900;2023-01-28T08:05:48;23.92;;;9.07;;
70675;SDS011;59069;52.242;20.900;2023-01-28T08:08:16;38.78;;;16.20;;
70675;SDS011;59069;52.242;20.900;2023-01-28T08:10:41;19.57;;;7.03;;
70675;SDS011;59069;52.242;20.900;2023-01-28T08:13:10;29.88;;;8.05;;
70675;SDS011;59069;52.242;20.900;2023-01-28T08:15:37;23.10;;;7.57;;
70675;SDS011;59069;52.242;20.900;2023-01-28T08:18:04;19.85;;;6.88;;
70675;SDS011;59069;52.242;20.900;2023-01-28T08:20:31;17.05;;;6.68;;
70675;SDS011;59069;52.242;20.900;2023-01-28T08:23:06;21.90;;;6.93;;
70675;SDS011;59069;52.242;20.900;2023-01-28T08:25:36;18.27;;;7.20;;
70675;SDS011;59069;52.242;20.900;2023-01-28T08:28:02;18.30;;;7.05;;
70675;SDS011;59069;52.242;20.900;2023-01-28T08:30:28;21.08;;;7.47;;
70675;SDS011;59069;52.242;20.900;2023-01-28T08:32:55;23.67;;;7.40;;
70675;SDS011;59069;52.242;20.900;2023-01-28T08:35:22;19.88;;;7.63;;
70675;SDS011;59069;52.242;20.900;2023-01-28T08:37:48;21.48;;;7.35;;
70675;SDS011;59069;52.242;20.900;2023-01-28T08:40:14;20.37;;;8.17;;
70675;SDS011;59069;52.242;20.900;2023-01-28T08:42:45;18.33;;;7.63;;
70675;SDS011;59069;52.242;20.900;2023-01-28T08:45:12;20.85;;;7.80;;
70675;SDS011;59069;52.242;20.900;2023-01-28T08:47:46;19.90;;;7.03;;
70675;SDS011;59069;52.242;20.900;2023-01-28T08:50:12;17.98;;;6.78;;
70675;SDS011;59069;52.242;20.900;2023-01-28T08:52:38;18.50;;;6.97;;
70675;SDS011;59069;52.242;20.900;2023-01-28T08:55:04;21.17;;;8.00;;
70675;SDS011;59069;52.242;20.900;2023-01-28T08:57:30;21.00;;;7.55;;
70675;SDS011;59069;52.242;20.900;2023-01-28T08:59:55;19.03;;;7.07;;
70675;SDS011;59069;52.242;20.900;2023-01-28T09:02:21;18.77;;;7.60;;
70675;SDS011;59069;52.242;20.900;2023-01-28T09:04:47;28.10;;;9.03;;
70675;SDS011;59069;52.242;20.900;2023-01-28T09:07:12;18.93;;;7.57;;
70675;SDS011;59069;52.242;20.900;2023-01-28T09:09:38;23.08;;;7.13;;
70675;SDS011;59069;52.242;20.900;2023-01-28T09:12:03;21.50;;;7.60;;
70675;SDS011;59069;52.242;20.900;2023-01-28T09:14:30;18.75;;;7.13;;
70675;SDS011;59069;52.242;20.900;2023-01-28T09:16:55;19.20;;;7.63;;
70675;SDS011;59069;52.242;20.900;2023-01-28T09:19:21;17.13;;;7.50;;
70675;SDS011;59069;52.242;20.900;2023-01-28T09:21:46;21.53;;;9.30;;
70675;SDS011;59069;52.242;20.900;2023-01-28T09:24:12;20.30;;;7.23;;
70675;SDS011;59069;52.242;20.900;2023-01-28T09:26:37;17.15;;;7.07;;
70675;SDS011;59069;52.242;20.900;2023-01-28T09:29:03;18.53;;;7.70;;
70675;SDS011;59069;52.242;20.900;2023-01-28T09:31:30;18.92;;;7.57;;
70675;SDS011;59069;52.242;20.900;2023-01-28T09:33:55;17.23;;;7.03;;
70675;SDS011;59069;52.242;20.900;2023-01-28T09:36:23;15.95;;;6.15;;
70675;SDS011;59069;52.242;20.900;2023-01-28T09:38:49;23.60;;;9.95;;
70675;SDS011;59069;52.242;20.900;2023-01-28T09:41:23;19.27;;;7.07;;
70675;SDS011;59069;52.242;20.900;2023-01-28T09:46:33;19.33;;;7.38;;
70675;SDS011;59069;52.242;20.900;2023-01-28T09:49:02;19.48;;;7.80;;
70675;SDS011;59069;52.242;20.900;2023-01-28T09:51:41;24.48;;;8.02;;
70675;SDS011;59069;52.242;20.900;2023-01-28T09:56:50;20.17;;;7.30;;
70675;SDS011;59069;52.242;20.900;2023-01-28T09:59:21;21.55;;;7.63;;
70675;SDS011;59069;52.242;20.900;2023-01-28T10:01:55;20.92;;;7.88;;
70675;SDS011;59069;52.242;20.900;2023-01-28T10:04:29;20.67;;;8.02;;
70675;SDS011;59069;52.242;20.900;2023-01-28T10:07:14;20.60;;;8.03;;
70675;SDS011;59069;52.242;20.900;2023-01-28T10:12:41;21.13;;;8.43;;
70675;SDS011;59069;52.242;20.900;2023-01-28T10:18:03;17.05;;;7.03;;
70675;SDS011;59069;52.242;20.900;2023-01-28T10:25:47;21.52;;;7.53;;
70675;SDS011;59069;52.242;20.900;2023-01-28T10:28:23;19.85;;;7.43;;
70675;SDS011;59069;52.242;20.900;2023-01-28T10:30:52;22.73;;;8.77;;
70675;SDS011;59069;52.242;20.900;2023-01-28T10:35:52;18.73;;;8.05;;
70675;SDS011;59069;52.242;20.900;2023-01-28T10:38:20;20.40;;;8.10;;
70675;SDS011;59069;52.242;20.900;2023-01-28T10:40:48;17.33;;;7.60;;
70675;SDS011;59069;52.242;20.900;2023-01-28T10:43:24;20.55;;;8.32;;
70675;SDS011;59069;52.242;20.900;2023-01-28T10:45:58;18.27;;;7.95;;
70675;SDS011;59069;52.242;20.900;2023-01-28T10:48:47;19.63;;;7.53;;
70675;SDS011;59069;52.242;20.900;2023-01-28T10:51:36;17.53;;;7.23;;
70675;SDS011;59069;52.242;20.900;2023-01-28T10:54:16;20.45;;;7.53;;
70675;SDS011;59069;52.242;20.900;2023-01-28T10:56:44;18.77;;;8.18;;
70675;SDS011;59069;52.242;20.900;2023-01-28T11:01:51;19.98;;;7.95;;
70675;SDS011;59069;52.242;20.900;2023-01-28T11:04:23;19.60;;;7.60;;
70675;SDS011;59069;52.242;20.900;2023-01-28T11:09:28;20.60;;;8.10;;
70675;SDS011;59069;52.242;20.900;2023-01-28T11:11:56;19.70;;;8.43;;
70675;SDS011;59069;52.242;20.900;2023-01-28T11:14:24;20.15;;;8.32;;
70675;SDS011;59069;52.242;20.900;2023-01-28T11:16:52;21.57;;;8.23;;
70675;SDS011;59069;52.242;20.900;2023-01-28T11:19:20;19.42;;;8.38;;
70675;SDS011;59069;52.242;20.900;2023-01-28T11:21:54;23.08;;;8.35;;
70675;SDS011;59069;52.242;20.900;2023-01-28T11:24:23;21.73;;;8.35;;
70675;SDS011;59069;52.242;20.900;2023-01-28T11:26:53;18.17;;;8.13;;
70675;SDS011;59069;52.242;20.900;2023-01-28T11:29:21;19.20;;;7.93;;
70675;SDS011;59069;52.242;20.900;2023-01-28T11:31:54;18.65;;;8.27;;
70675;SDS011;59069;52.242;20.900;2023-01-28T11:34:23;20.10;;;8.25;;
70675;SDS011;59069;52.242;20.900;2023-01-28T11:36:59;19.40;;;8.65;;
70675;SDS011;59069;52.242;20.900;2023-01-28T11:39:27;19.50;;;8.40;;
70675;SDS011;59069;52.242;20.900;2023-01-28T11:41:54;20.57;;;8.30;;
70675;SDS011;59069;52.242;20.900;2023-01-28T11:44:35;19.42;;;8.32;;
70675;SDS011;59069;52.242;20.900;2023-01-28T11:52:59;21.48;;;8.43;;
70675;SDS011;59069;52.242;20.900;2023-01-28T12:01:11;21.90;;;8.63;;
70675;SDS011;59069;52.242;20.900;2023-01-28T12:06:51;20.73;;;8.38;;
70675;SDS011;59069;52.242;20.900;2023-01-28T12:20:22;20.77;;;8.35;;
70675;SDS011;59069;52.242;20.900;2023-01-28T12:22:53;20.58;;;7.82;;
70675;SDS011;59069;52.242;20.900;2023-01-28T12:39:28;19.30;;;7.87;;
70675;SDS011;59069;52.242;20.900;2023-01-28T12:42:18;28.23;;;8.85;;
70675;SDS011;59069;52.242;20.900;2023-01-28T12:45:15;21.10;;;8.63;;
70675;SDS011;59069;52.242;20.900;2023-01-28T12:47:49;24.60;;;9.43;;
70675;SDS011;59069;52.242;20.900;2023-01-28T12:50:37;22.38;;;9.13;;
70675;SDS011;59069;52.242;20.900;2023-01-28T12:56:26;23.85;;;9.30;;
70675;SDS011;59069;52.242;20.900;2023-01-28T12:59:09;23.00;;;10.10;;
70675;SDS011;59069;52.242;20.900;2023-01-28T13:01:41;24.35;;;9.82;;
70675;SDS011;59069;52.242;20.900;2023-01-28T13:04:16;25.42;;;9.75;;
70675;SDS011;59069;52.242;20.900;2023-01-28T13:06:50;25.57;;;10.07;;
70675;SDS011;59069;52.242;20.900;2023-01-28T13:09:20;25.17;;;9.88;;
70675;SDS011;59069;52.242;20.900;2023-01-28T13:11:49;22.15;;;9.68;;
70675;SDS011;59069;52.242;20.900;2023-01-28T13:14:17;24.38;;;10.10;;
70675;SDS011;59069;52.242;20.900;2023-01-28T13:16:52;23.25;;;9.80;;
70675;SDS011;59069;52.242;20.900;2023-01-28T13:21:43;23.17;;;9.33;;
70675;SDS011;59069;52.242;20.900;2023-01-28T13:26:43;25.75;;;9.75;;
70675;SDS011;59069;52.242;20.900;2023-01-28T13:31:40;21.08;;;9.20;;
70675;SDS011;59069;52.242;20.900;2023-01-28T13:34:10;22.38;;;9.52;;
70675;SDS011;59069;52.242;20.900;2023-01-28T13:37:01;26.30;;;9.30;;
70675;SDS011;59069;52.242;20.900;2023-01-28T13:39:45;22.73;;;8.93;;
70675;SDS011;59069;52.242;20.900;2023-01-28T13:42:20;26.45;;;10.25;;
70675;SDS011;59069;52.242;20.900;2023-01-28T13:44:48;26.13;;;10.55;;
70675;SDS011;59069;52.242;20.900;2023-01-28T13:47:17;21.30;;;9.47;;
70675;SDS011;59069;52.242;20.900;2023-01-28T13:49:54;22.98;;;9.52;;
70675;SDS011;59069;52.242;20.900;2023-01-28T13:55:01;21.38;;;9.18;;
70675;SDS011;59069;52.242;20.900;2023-01-28T13:58:34;22.43;;;9.07;;
70675;SDS011;59069;52.242;20.900;2023-01-28T14:17:51;19.45;;;8.05;;
70675;SDS011;59069;52.242;20.900;2023-01-28T14:20:21;20.20;;;8.50;;
70675;SDS011;59069;52.242;20.900;2023-01-28T14:23:02;20.27;;;8.45;;
70675;SDS011;59069;52.242;20.900;2023-01-28T14:28:15;18.58;;;6.63;;
70675;SDS011;59069;52.242;20.900;2023-01-28T14:30:53;18.88;;;8.00;;
70675;SDS011;59069;52.242;20.900;2023-01-28T14:33:21;16.30;;;6.85;;
70675;SDS011;59069;52.242;20.900;2023-01-28T14:35:48;20.70;;;7.95;;
70675;SDS011;59069;52.242;20.900;2023-01-28T14:38:15;19.50;;;7.50;;
70675;SDS011;59069;52.242;20.900;2023-01-28T14:40:42;18.13;;;7.90;;
70675;SDS011;59069;52.242;20.900;2023-01-28T14:43:12;17.17;;;7.30;;
70675;SDS011;59069;52.242;20.900;2023-01-28T14:51:27;19.37;;;7.33;;
70675;SDS011;59069;52.242;20.900;2023-01-28T14:54:30;17.30;;;7.43;;
70675;SDS011;59069;52.242;20.900;2023-01-28T14:59:57;20.10;;;8.20;;
70675;SDS011;59069;52.242;20.900;2023-01-28T15:02:24;22.42;;;9.30;;
70675;SDS011;59069;52.242;20.900;2023-01-28T15:04:52;20.77;;;8.17;;
70675;SDS011;59069;52.242;20.900;2023-01-28T15:07:24;22.00;;;8.15;;
70675;SDS011;59069;52.242;20.900;2023-01-28T15:10:02;20.45;;;8.32;;
70675;SDS011;59069;52.242;20.900;2023-01-28T15:12:31;17.80;;;6.95;;
70675;SDS011;59069;52.242;20.900;2023-01-28T15:15:34;17.63;;;8.00;;
70675;SDS011;59069;52.242;20.900;2023-01-28T15:17:52;19.73;;;8.53;;
70675;SDS011;59069;52.242;20.900;2023-01-28T15:20:22;22.45;;;9.73;;
70675;SDS011;59069;52.242;20.900;2023-01-28T15:22:49;24.95;;;9.88;;
70675;SDS011;59069;52.242;20.900;2023-01-28T15:25:20;25.05;;;9.00;;
70675;SDS011;59069;52.242;20.900;2023-01-28T15:27:48;22.80;;;9.18;;
70675;SDS011;59069;52.242;20.900;2023-01-28T15:30:20;24.23;;;9.97;;
70675;SDS011;59069;52.242;20.900;2023-01-28T15:33:04;18.27;;;7.70;;
70675;SDS011;59069;52.242;20.900;2023-01-28T15:35:35;16.40;;;5.57;;
70675;SDS011;59069;52.242;20.900;2023-01-28T15:38:01;14.57;;;5.47;;
70675;SDS011;59069;52.242;20.900;2023-01-28T15:40:27;14.77;;;6.03;;
70675;SDS011;59069;52.242;20.900;2023-01-28T15:42:54;15.50;;;6.43;;
70675;SDS011;59069;52.242;20.900;2023-01-28T15:45:23;17.42;;;6.30;;
70675;SDS011;59069;52.242;20.900;2023-01-28T15:47:50;17.60;;;6.95;;
70675;SDS011;59069;52.242;20.900;2023-01-28T15:50:22;16.60;;;6.90;;
70675;SDS011;59069;52.242;20.900;2023-01-28T15:52:49;17.42;;;6.82;;
70675;SDS011;59069;52.242;20.900;2023-01-28T15:57:53;19.08;;;8.02;;
70675;SDS011;59069;52.242;20.900;2023-01-28T16:00:19;20.33;;;8.93;;
70675;SDS011;59069;52.242;20.900;2023-01-28T16:02:49;14.55;;;5.57;;
70675;SDS011;59069;52.242;20.900;2023-01-28T16:08:03;16.08;;;6.15;;
70675;SDS011;59069;52.242;20.900;2023-01-28T16:10:33;16.50;;;7.00;;
70675;SDS011;59069;52.242;20.900;2023-01-28T16:15:37;19.63;;;7.85;;
70675;SDS011;59069;52.242;20.900;2023-01-28T16:18:03;18.67;;;8.32;;
70675;SDS011;59069;52.242;20.900;2023-01-28T16:20:30;20.02;;;7.80;;
70675;SDS011;59069;52.242;20.900;2023-01-28T16:22:59;19.47;;;7.90;;
70675;SDS011;59069;52.242;20.900;2023-01-28T16:25:30;19.77;;;8.80;;
70675;SDS011;59069;52.242;20.900;2023-01-28T16:27:58;22.83;;;8.48;;
70675;SDS011;59069;52.242;20.900;2023-01-28T16:30:25;18.90;;;7.60;;
70675;SDS011;59069;52.242;20.900;2023-01-28T16:32:51;18.52;;;7.28;;
70675;SDS011;59069;52.242;20.900;2023-01-28T16:37:47;19.58;;;8.25;;
70675;SDS011;59069;52.242;20.900;2023-01-28T16:40:14;20.92;;;7.97;;
70675;SDS011;59069;52.242;20.900;2023-01-28T16:42:42;20.65;;;8.13;;
70675;SDS011;59069;52.242;20.900;2023-01-28T16:48:05;21.13;;;8.70;;
70675;SDS011;59069;52.242;20.900;2023-01-28T16:50:31;22.23;;;8.98;;
70675;SDS011;59069;52.242;20.900;2023-01-28T16:52:57;17.38;;;6.45;;
70675;SDS011;59069;52.242;20.900;2023-01-28T16:55:24;20.10;;;6.97;;
70675;SDS011;59069;52.242;20.900;2023-01-28T16:57:51;15.18;;;6.30;;
70675;SDS011;59069;52.242;20.900;2023-01-28T17:00:20;17.60;;;6.60;;
70675;SDS011;59069;52.242;20.900;2023-01-28T17:02:48;18.60;;;7.18;;
70675;SDS011;59069;52.242;20.900;2023-01-28T17:05:14;19.15;;;7.05;;
70675;SDS011;59069;52.242;20.900;2023-01-28T17:07:40;17.67;;;7.30;;
70675;SDS011;59069;52.242;20.900;2023-01-28T17:10:06;17.88;;;6.70;;
70675;SDS011;59069;52.242;20.900;2023-01-28T17:12:33;19.20;;;6.75;;
70675;SDS011;59069;52.242;20.900;2023-01-28T17:14:59;11.33;;;4.53;;
70675;SDS011;59069;52.242;20.900;2023-01-28T17:17:25;15.30;;;5.60;;
70675;SDS011;59069;52.242;20.900;2023-01-28T17:19:50;12.87;;;5.03;;
70675;SDS011;59069;52.242;20.900;2023-01-28T17:22:16;11.30;;;4.68;;
70675;SDS011;59069;52.242;20.900;2023-01-28T17:24:42;15.10;;;5.30;;
70675;SDS011;59069;52.242;20.900;2023-01-28T17:27:07;16.42;;;6.10;;
70675;SDS011;59069;52.242;20.900;2023-01-28T17:29:33;17.95;;;6.25;;
70675;SDS011;59069;52.242;20.900;2023-01-28T17:32:00;18.63;;;6.57;;
70675;SDS011;59069;52.242;20.900;2023-01-28T17:34:26;17.10;;;6.45;;
70675;SDS011;59069;52.242;20.900;2023-01-28T17:36:51;17.25;;;6.53;;
70675;SDS011;59069;52.242;20.900;2023-01-28T17:39:17;18.73;;;6.53;;
70675;SDS011;59069;52.242;20.900;2023-01-28T17:41:43;21.48;;;8.68;;
70675;SDS011;59069;52.242;20.900;2023-01-28T17:44:09;20.37;;;7.40;;
70675;SDS011;59069;52.242;20.900;2023-01-28T17:46:36;17.25;;;7.00;;
70675;SDS011;59069;52.242;20.900;2023-01-28T17:49:02;21.80;;;8.50;;
70675;SDS011;59069;52.242;20.900;2023-01-28T17:51:27;20.88;;;8.23;;
70675;SDS011;59069;52.242;20.900;2023-01-28T17:53:53;20.33;;;7.87;;
70675;SDS011;59069;52.242;20.900;2023-01-28T17:56:23;16.10;;;7.38;;
70675;SDS011;59069;52.242;20.900;2023-01-28T17:58:54;16.27;;;6.82;;
70675;SDS011;59069;52.242;20.900;2023-01-28T18:01:22;17.53;;;7.47;;
70675;SDS011;59069;52.242;20.900;2023-01-28T18:03:49;17.50;;;7.28;;
70675;SDS011;59069;52.242;20.900;2023-01-28T18:06:15;18.88;;;7.45;;
70675;SDS011;59069;52.242;20.900;2023-01-28T18:08:41;18.08;;;7.57;;
70675;SDS011;59069;52.242;20.900;2023-01-28T18:11:10;18.07;;;7.60;;
70675;SDS011;59069;52.242;20.900;2023-01-28T18:13:38;20.13;;;8.32;;
70675;SDS011;59069;52.242;20.900;2023-01-28T18:16:05;24.00;;;9.20;;
70675;SDS011;59069;52.242;20.900;2023-01-28T18:18:32;25.17;;;8.77;;
70675;SDS011;59069;52.242;20.900;2023-01-28T18:21:02;23.20;;;8.47;;
70675;SDS011;59069;52.242;20.900;2023-01-28T18:23:30;19.25;;;7.47;;
70675;SDS011;59069;52.242;20.900;2023-01-28T18:25:57;18.85;;;8.18;;
70675;SDS011;59069;52.242;20.900;2023-01-28T18:28:28;22.27;;;7.85;;
70675;SDS011;59069;52.242;20.900;2023-01-28T18:30:54;18.38;;;7.25;;
70675;SDS011;59069;52.242;20.900;2023-01-28T18:33:20;16.87;;;6.50;;
70675;SDS011;59069;52.242;20.900;2023-01-28T18:35:47;14.68;;;5.93;;
70675;SDS011;59069;52.242;20.900;2023-01-28T18:38:14;15.45;;;5.20;;
70675;SDS011;59069;52.242;20.900;2023-01-28T18:40:43;15.27;;;5.83;;
70675;SDS011;59069;52.242;20.900;2023-01-28T18:43:09;14.30;;;5.18;;
70675;SDS011;59069;52.242;20.900;2023-01-28T18:45:38;15.93;;;6.68;;
70675;SDS011;59069;52.242;20.900;2023-01-28T18:48:05;14.73;;;5.77;;
70675;SDS011;59069;52.242;20.900;2023-01-28T18:50:31;14.75;;;6.50;;
70675;SDS011;59069;52.242;20.900;2023-01-28T18:52:57;16.55;;;7.30;;
70675;SDS011;59069;52.242;20.900;2023-01-28T18:55:23;14.88;;;6.15;;
70675;SDS011;59069;52.242;20.900;2023-01-28T18:57:48;19.87;;;7.60;;
70675;SDS011;59069;52.242;20.900;2023-01-28T19:00:14;22.43;;;7.60;;
70675;SDS011;59069;52.242;20.900;2023-01-28T19:02:40;24.60;;;8.25;;
70675;SDS011;59069;52.242;20.900;2023-01-28T19:05:05;19.27;;;6.77;;
70675;SDS011;59069;52.242;20.900;2023-01-28T19:07:31;21.98;;;7.45;;
70675;SDS011;59069;52.242;20.900;2023-01-28T19:09:57;21.50;;;6.65;;
70675;SDS011;59069;52.242;20.900;2023-01-28T19:12:22;21.43;;;7.00;;
70675;SDS011;59069;52.242;20.900;2023-01-28T19:14:48;19.53;;;5.80;;
70675;SDS011;59069;52.242;20.900;2023-01-28T19:17:14;17.00;;;5.78;;
70675;SDS011;59069;52.242;20.900;2023-01-28T19:19:39;12.97;;;5.03;;
70675;SDS011;59069;52.242;20.900;2023-01-28T19:22:05;13.37;;;4.50;;
70675;SDS011;59069;52.242;20.900;2023-01-28T19:24:30;16.53;;;6.47;;
70675;SDS011;59069;52.242;20.900;2023-01-28T19:26:56;15.93;;;5.60;;
70675;SDS011;59069;52.242;20.900;2023-01-28T19:29:23;15.93;;;5.80;;
70675;SDS011;59069;52.242;20.900;2023-01-28T19:31:51;19.00;;;5.75;;
70675;SDS011;59069;52.242;20.900;2023-01-28T19:34:17;13.02;;;4.90;;
70675;SDS011;59069;52.242;20.900;2023-01-28T19:36:42;15.60;;;5.27;;
70675;SDS011;59069;52.242;20.900;2023-01-28T19:39:09;13.65;;;4.90;;
70675;SDS011;59069;52.242;20.900;2023-01-28T19:41:36;13.00;;;4.45;;
70675;SDS011;59069;52.242;20.900;2023-01-28T19:44:02;12.07;;;4.30;;
70675;SDS011;59069;52.242;20.900;2023-01-28T19:46:29;11.02;;;4.43;;
70675;SDS011;59069;52.242;20.900;2023-01-28T19:48:54;12.90;;;4.53;;
70675;SDS011;59069;52.242;20.900;2023-01-28T19:51:20;13.57;;;4.47;;
70675;SDS011;59069;52.242;20.900;2023-01-28T19:53:48;11.93;;;4.28;;
70675;SDS011;59069;52.242;20.900;2023-01-28T19:56:15;10.63;;;3.75;;
70675;SDS011;59069;52.242;20.900;2023-01-28T19:58:42;11.43;;;3.65;;
70675;SDS011;59069;52.242;20.900;2023-01-28T20:01:12;13.60;;;4.73;;
70675;SDS011;59069;52.242;20.900;2023-01-28T20:03:40;13.63;;;4.35;;
70675;SDS011;59069;52.242;20.900;2023-01-28T20:06:07;13.63;;;5.05;;
70675;SDS011;59069;52.242;20.900;2023-01-28T20:08:36;16.00;;;5.78;;
70675;SDS011;59069;52.242;20.900;2023-01-28T20:11:08;16.57;;;5.47;;
70675;SDS011;59069;52.242;20.900;2023-01-28T20:13:37;10.43;;;4.50;;
70675;SDS011;59069;52.242;20.900;2023-01-28T20:16:04;13.18;;;5.30;;
70675;SDS011;59069;52.242;20.900;2023-01-28T20:18:50;12.05;;;4.72;;
70675;SDS011;59069;52.242;20.900;2023-01-28T20:21:18;14.83;;;5.37;;
70675;SDS011;59069;52.242;20.900;2023-01-28T20:23:48;14.48;;;5.20;;
70675;SDS011;59069;52.242;20.900;2023-01-28T20:26:15;15.73;;;5.63;;
70675;SDS011;59069;52.242;20.900;2023-01-28T20:28:41;12.15;;;4.70;;
70675;SDS011;59069;52.242;20.900;2023-01-28T20:31:08;12.63;;;4.70;;
70675;SDS011;59069;52.242;20.900;2023-01-28T20:33:35;12.05;;;4.30;;
70675;SDS011;59069;52.242;20.900;2023-01-28T20:36:04;12.68;;;4.57;;
70675;SDS011;59069;52.242;20.900;2023-01-28T20:38:33;11.45;;;4.25;;
70675;SDS011;59069;52.242;20.900;2023-01-28T20:41:03;11.52;;;4.45;;
70675;SDS011;59069;52.242;20.900;2023-01-28T20:43:34;12.20;;;4.70;;
70675;SDS011;59069;52.242;20.900;2023-01-28T20:46:05;12.88;;;4.10;;
70675;SDS011;59069;52.242;20.900;2023-01-28T20:48:41;11.32;;;4.10;;
70675;SDS011;59069;52.242;20.900;2023-01-28T20:51:17;12.32;;;4.13;;
70675;SDS011;59069;52.242;20.900;2023-01-28T20:53:45;9.67;;;3.57;;
70675;SDS011;59069;52.242;20.900;2023-01-28T20:56:12;9.93;;;3.38;;
70675;SDS011;59069;52.242;20.900;2023-01-28T20:58:41;8.57;;;2.95;;
70675;SDS011;59069;52.242;20.900;2023-01-28T21:01:14;9.57;;;3.63;;
70675;SDS011;59069;52.242;20.900;2023-01-28T21:03:44;9.75;;;3.45;;
70675;SDS011;59069;52.242;20.900;2023-01-28T21:06:10;10.07;;;3.67;;
70675;SDS011;59069;52.242;20.900;2023-01-28T21:08:35;10.60;;;4.20;;
70675;SDS011;59069;52.242;20.900;2023-01-28T21:11:01;10.23;;;3.93;;
70675;SDS011;59069;52.242;20.900;2023-01-28T21:13:28;11.15;;;4.28;;
70675;SDS011;59069;52.242;20.900;2023-01-28T21:15:54;10.40;;;4.27;;
70675;SDS011;59069;52.242;20.900;2023-01-28T21:18:21;10.93;;;4.03;;
70675;SDS011;59069;52.242;20.900;2023-01-28T21:20:47;10.63;;;3.80;;
70675;SDS011;59069;52.242;20.900;2023-01-28T21:23:13;10.95;;;4.20;;
70675;SDS011;59069;52.242;20.900;2023-01-28T21:25:42;13.68;;;4.22;;
70675;SDS011;59069;52.242;20.900;2023-01-28T21:28:11;11.53;;;4.00;;
70675;SDS011;59069;52.242;20.900;2023-01-28T21:30:38;12.38;;;4.30;;
70675;SDS011;59069;52.242;20.900;2023-01-28T21:33:04;9.63;;;3.97;;
70675;SDS011;59069;52.242;20.900;2023-01-28T21:35:30;12.85;;;5.07;;